Time;durP1;ratioP1;P1;durP2;ratioP2;P2;SDS_P1;SDS_P2;PMS_P1;PMS_P2;Temp;Humidity;BMP_temperature;BMP_pressure;BME280_temperature;BME280_humidity;BME280_pressure;Samples;Min_cycle;Max_cycle;Signal;HPM_P1;HPM_P2
2023/07/28 00:00:43;;;;;;;10.73;5.35;;;;;;;12.41;100.00;92504.81;2065853;28;20899;-81
2023/07/28 00:01:44;;;;;;;9.25;5.43;;;;;;;12.50;100.00;92512.88;2065884;28;20037;-82
2023/07/28 00:02:45;;;;;;;9.80;5.18;;;;;;;12.50;100.00;92502.16;2074823;28;20041;-82
2023/07/28 00:03:46;;;;;;;8.27;5.03;;;;;;;12.51;100.00;92511.72;2081944;28;20036;-81
2023/07/28 00:04:47;;;;;;;6.40;4.80;;;;;;;12.50;100.00;92504.84;2077505;28;20021;-82
2023/07/28 00:05:48;;;;;;;8.20;4.70;;;;;;;12.42;100.00;92508.97;2081979;28;20108;-82
2023/07/28 00:06:49;;;;;;;10.13;5.47;;;;;;;12.48;100.00;92509.91;2080995;28;20025;-81
2023/07/28 00:07:50;;;;;;;7.57;5.47;;;;;;;12.52;100.00;92507.84;2079036;28;20083;-83
2023/07/28 00:08:51;;;;;;;9.00;5.35;;;;;;;12.44;100.00;92511.97;2091164;28;20025;-81
2023/07/28 00:09:52;;;;;;;10.52;5.65;;;;;;;12.42;100.00;92511.66;2090116;28;20452;-81
2023/07/28 00:10:53;;;;;;;8.65;5.25;;;;;;;12.40;100.00;92513.31;2089816;28;20029;-82
2023/07/28 00:11:59;;;;;;;6.78;4.90;;;;;;;12.45;100.00;92513.47;2073233;28;20489;-81
2023/07/28 00:13:02;;;;;;;8.73;5.32;;;;;;;12.47;100.00;92505.00;2073699;28;20176;-81
2023/07/28 00:14:03;;;;;;;7.82;5.32;;;;;;;12.42;100.00;92511.66;2090079;28;20113;-82
2023/07/28 00:15:04;;;;;;;9.57;5.35;;;;;;;12.59;100.00;92514.84;2081743;28;20028;-82
2023/07/28 00:16:06;;;;;;;8.60;5.32;;;;;;;12.53;100.00;92512.00;2064800;28;20077;-81
2023/07/28 00:17:07;;;;;;;13.02;5.63;;;;;;;12.51;100.00;92509.03;2072678;28;20018;-82
2023/07/28 00:18:08;;;;;;;10.32;5.43;;;;;;;12.47;100.00;92508.41;2073683;28;20022;-82
2023/07/28 00:19:09;;;;;;;7.93;5.05;;;;;;;12.46;100.00;92506.91;2073162;28;20022;-81
2023/07/28 00:20:11;;;;;;;9.43;5.15;;;;;;;12.41;100.00;92510.16;2081556;28;20065;-81
2023/07/28 00:21:12;;;;;;;10.82;5.15;;;;;;;12.48;100.00;92515.28;2090108;28;20385;-81
2023/07/28 00:22:13;;;;;;;8.43;4.97;;;;;;;12.50;100.00;92510.19;2086536;28;20112;-82
2023/07/28 00:23:14;;;;;;;9.20;4.90;;;;;;;12.47;100.00;92513.78;2075988;28;20028;-82
2023/07/28 00:24:18;;;;;;;9.65;5.15;;;;;;;12.46;100.00;92512.25;2073826;28;20064;-82
2023/07/28 00:25:19;;;;;;;5.97;4.70;;;;;;;12.42;100.00;92508.97;2089185;28;20150;-82
2023/07/28 00:26:20;;;;;;;6.75;4.60;;;;;;;12.40;100.00;92510.63;2080868;28;20108;-81
2023/07/28 00:27:21;;;;;;;10.48;5.03;;;;;;;12.37;100.00;92506.88;2073733;28;20055;-82
2023/07/28 00:28:22;;;;;;;6.78;5.07;;;;;;;12.32;100.00;92516.25;2094805;28;20031;-81
2023/07/28 00:29:23;;;;;;;11.18;5.47;;;;;;;12.31;100.00;92516.69;2089934;28;20063;-82
2023/07/28 00:30:25;;;;;;;8.85;5.32;;;;;;;12.30;100.00;92515.22;2087460;28;20021;-81
2023/07/28 00:31:26;;;;;;;12.77;5.38;;;;;;;12.33;100.00;92515.03;2068340;28;20038;-82
2023/07/28 00:32:27;;;;;;;7.65;4.85;;;;;;;12.29;100.00;92513.69;2074076;28;20064;-81
2023/07/28 00:33:28;;;;;;;7.55;4.82;;;;;;;12.24;100.00;92508.91;2081414;28;20101;-81
2023/07/28 00:34:29;;;;;;;8.32;4.60;;;;;;;12.26;100.00;92511.91;2081614;28;20056;-82
2023/07/28 00:35:30;;;;;;;14.73;5.18;;;;;;;12.21;100.00;92502.53;2072757;28;20088;-82
2023/07/28 00:36:31;;;;;;;5.95;4.30;;;;;;;12.06;100.00;92498.88;2072837;28;21469;-82
2023/07/28 00:37:32;;;;;;;7.55;4.60;;;;;;;12.16;100.00;92505.00;2073181;28;20021;-82
2023/07/28 00:38:33;;;;;;;7.20;4.85;;;;;;;12.23;100.00;92496.72;2081650;28;20060;-84
2023/07/28 00:39:34;;;;;;;6.90;4.50;;;;;;;12.23;100.00;92497.44;2081356;28;20029;-81
2023/07/28 00:40:35;;;;;;;8.60;4.97;;;;;;;12.24;100.00;92492.84;2081530;28;20045;-81
2023/07/28 00:41:36;;;;;;;6.03;4.45;;;;;;;12.47;100.00;92503.06;2074228;28;20030;-82
2023/07/28 00:42:37;;;;;;;6.65;4.43;;;;;;;12.54;100.00;92500.09;2073678;28;20434;-82
2023/07/28 00:43:38;;;;;;;6.70;4.60;;;;;;;12.44;100.00;92498.56;2089651;28;20025;-81
2023/07/28 00:44:39;;;;;;;12.02;5.28;;;;;;;12.36;100.00;92497.34;2088395;28;20021;-82
2023/07/28 00:45:40;;;;;;;8.60;4.95;;;;;;;12.32;100.00;92491.38;2081070;28;20025;-83
2023/07/28 00:46:41;;;;;;;8.57;4.53;;;;;;;12.16;100.00;92497.75;2072947;28;20025;-81
2023/07/28 00:47:42;;;;;;;8.23;4.68;;;;;;;12.18;100.00;92494.59;2073004;28;20045;-81
2023/07/28 00:48:44;;;;;;;5.68;4.95;;;;;;;12.15;100.00;92498.16;2081554;28;20033;-81
2023/07/28 00:49:45;;;;;;;7.53;4.45;;;;;;;12.00;100.00;92496.03;2089716;28;20112;-83
2023/07/28 00:50:48;;;;;;;7.30;4.18;;;;;;;12.03;100.00;92492.47;2089553;28;20021;-82
2023/07/28 00:51:50;;;;;;;5.90;4.75;;;;;;;12.01;100.00;92488.72;2080541;28;20033;-81
2023/07/28 00:52:51;;;;;;;8.88;4.57;;;;;;;12.00;100.00;92487.97;2073555;28;20030;-83
2023/07/28 00:53:53;;;;;;;10.50;4.70;;;;;;;11.98;100.00;92498.38;2073093;28;20026;-82
2023/07/28 00:54:54;;;;;;;9.23;4.55;;;;;;;12.04;100.00;92491.28;2065467;28;20048;-81
2023/07/28 00:55:55;;;;;;;9.55;4.90;;;;;;;12.00;100.00;92496.03;2073041;28;20446;-81
2023/07/28 00:56:56;;;;;;;7.47;4.63;;;;;;;12.15;100.00;92496.22;2081107;28;20077;-81
2023/07/28 00:57:57;;;;;;;11.10;4.53;;;;;;;12.15;100.00;92487.44;2081624;28;20018;-82
2023/07/28 00:58:58;;;;;;;9.85;4.75;;;;;;;12.12;100.00;92497.13;2089689;28;20021;-84
2023/07/28 01:00:00;;;;;;;5.90;4.80;;;;;;;12.15;100.00;92492.81;2097966;28;20059;-82
2023/07/28 01:01:02;;;;;;;7.82;4.40;;;;;;;12.14;100.00;92485.97;2081154;28;20481;-81
2023/07/28 01:02:03;;;;;;;7.13;4.82;;;;;;;12.08;100.00;92483.84;2072141;28;20037;-82
2023/07/28 01:03:04;;;;;;;7.82;4.70;;;;;;;11.91;100.00;92498.66;2073149;28;20109;-81
2023/07/28 01:04:05;;;;;;;8.00;4.50;;;;;;;11.79;100.00;92483.38;2073127;28;20049;-82
2023/07/28 01:05:07;;;;;;;8.25;5.38;;;;;;;11.82;100.00;92482.50;2081352;28;20071;-83
2023/07/28 01:06:12;;;;;;;7.90;4.78;;;;;;;11.79;100.00;92492.16;2072993;28;20030;-82
2023/07/28 01:07:25;;;;;;;7.50;4.68;;;;;;;11.84;100.00;92488.19;2068582;28;20034;-82
2023/07/28 01:08:36;;;;;;;7.68;4.32;;;;;;;11.85;100.00;92476.28;2089250;28;20044;-82
2023/07/28 01:09:50;;;;;;;6.70;4.75;;;;;;;11.90;100.00;92481.09;2076151;28;20486;-82
2023/07/28 01:10:51;;;;;;;9.88;4.55;;;;;;;11.86;100.00;92482.41;2090467;28;20104;-82
2023/07/28 01:12:00;;;;;;;6.82;4.28;;;;;;;11.75;100.00;92483.50;2086916;28;20021;-81
2023/07/28 01:13:01;;;;;;;6.80;4.78;;;;;;;11.76;100.00;92487.66;2078905;28;20056;-81
2023/07/28 01:14:02;;;;;;;7.32;4.45;;;;;;;11.79;100.00;92478.78;2081351;28;20079;-82
2023/07/28 01:15:03;;;;;;;7.85;4.43;;;;;;;11.84;100.00;92485.50;2097232;28;20036;-82
2023/07/28 01:16:07;;;;;;;6.57;4.75;;;;;;;11.80;100.00;92484.88;2103215;28;20111;-83
2023/07/28 01:17:09;;;;;;;8.73;4.97;;;;;;;11.85;100.00;92484.31;2097744;28;20015;-81
2023/07/28 01:18:10;;;;;;;6.97;4.47;;;;;;;11.90;100.00;92481.09;2089137;28;20066;-82
2023/07/28 01:19:21;;;;;;;6.55;4.50;;;;;;;11.88;100.00;92486.13;2072891;28;20021;-82
2023/07/28 01:20:28;;;;;;;5.93;4.88;;;;;;;11.92;100.00;92483.34;2082052;28;20032;-81
2023/07/28 01:21:32;;;;;;;6.63;4.63;;;;;;;11.95;100.00;92485.88;2089871;28;20429;-81
2023/07/28 01:22:33;;;;;;;5.78;4.65;;;;;;;11.94;100.00;92491.66;2089545;28;20029;-82
2023/07/28 01:24:20;;;;;;;7.03;4.65;;;;;;;11.89;100.00;92492.22;2081047;28;20095;-84
2023/07/28 01:25:56;;;;;;;6.82;4.50;;;;;;;11.75;100.00;92496.16;2048521;28;20055;-81
2023/07/28 01:26:57;;;;;;;7.75;4.40;;;;;;;11.83;100.00;92487.44;2044839;29;20035;-81
2023/07/28 01:28:00;;;;;;;6.90;4.50;;;;;;;11.92;100.00;92489.44;2040245;29;20033;-82
2023/07/28 01:29:02;;;;;;;6.68;4.75;;;;;;;11.88;100.00;92491.50;2043307;29;21837;-83
2023/07/28 01:30:04;;;;;;;5.68;4.18;;;;;;;11.77;100.00;92488.44;2047594;28;20070;-83
2023/07/28 01:31:07;;;;;;;8.73;4.82;;;;;;;11.76;100.00;92489.59;2066963;28;20038;-82
2023/07/28 01:32:11;;;;;;;6.47;4.75;;;;;;;11.72;100.00;92486.31;2075406;28;20109;-81
2023/07/28 01:33:12;;;;;;;6.28;4.13;;;;;;;11.66;100.00;92482.72;2073508;28;20208;-82
2023/07/28 01:34:13;;;;;;;7.45;4.82;;;;;;;11.68;100.00;92489.13;2089684;28;20039;-81
2023/07/28 01:35:14;;;;;;;8.30;4.45;;;;;;;11.64;100.00;92487.78;2089001;28;20021;-82
2023/07/28 01:36:15;;;;;;;8.50;4.40;;;;;;;11.67;100.00;92489.56;2073049;28;20053;-83
2023/07/28 01:37:16;;;;;;;7.05;4.50;;;;;;;11.71;100.00;92496.28;2072131;28;20398;-81
2023/07/28 01:38:17;;;;;;;6.82;4.47;;;;;;;11.75;100.00;92493.47;2072573;28;20026;-81
2023/07/28 01:39:18;;;;;;;6.68;4.70;;;;;;;11.70;100.00;92491.38;2083824;28;20017;-81
2023/07/28 01:40:20;;;;;;;7.88;4.68;;;;;;;11.76;100.00;92489.59;2080621;28;20506;-83
2023/07/28 01:41:21;;;;;;;6.32;4.50;;;;;;;11.77;100.00;92493.78;2073303;28;20108;-81
2023/07/28 01:42:22;;;;;;;7.03;4.32;;;;;;;11.71;100.00;92496.28;2080821;28;20021;-82
2023/07/28 01:43:23;;;;;;;12.05;4.60;;;;;;;11.71;100.00;92487.50;2080763;28;20072;-82
2023/07/28 01:44:24;;;;;;;11.57;4.72;;;;;;;11.58;100.00;92487.56;2072988;28;20590;-81
2023/07/28 01:45:25;;;;;;;6.28;4.20;;;;;;;11.60;100.00;92485.97;2080631;28;20025;-82
2023/07/28 01:46:31;;;;;;;6.15;4.18;;;;;;;11.67;100.00;92481.53;2072326;28;20049;-81
2023/07/28 01:47:32;;;;;;;6.55;3.97;;;;;;;11.68;100.00;92488.41;2081502;28;20025;-82
2023/07/28 01:48:33;;;;;;;10.80;4.40;;;;;;;11.62;100.00;92490.13;2080878;28;20041;-83
2023/07/28 01:49:34;;;;;;;6.03;4.13;;;;;;;11.66;100.00;92491.50;2081032;28;20176;-81
2023/07/28 01:50:36;;;;;;;5.65;4.15;;;;;;;11.72;100.00;92483.63;2073328;28;20091;-81
2023/07/28 01:51:37;;;;;;;6.93;4.18;;;;;;;11.69;100.00;92484.53;2081199;28;20501;-82
2023/07/28 01:52:38;;;;;;;6.00;4.20;;;;;;;11.73;100.00;92487.81;2069112;28;20029;-82
2023/07/28 01:53:39;;;;;;;7.82;4.70;;;;;;;11.71;100.00;92490.19;2080663;28;20116;-82
2023/07/28 01:54:40;;;;;;;6.85;4.00;;;;;;;11.77;100.00;92489.19;2072809;28;20026;-81
2023/07/28 01:55:41;;;;;;;7.60;4.53;;;;;;;11.72;100.00;92494.34;2080625;28;20449;-81
2023/07/28 01:56:42;;;;;;;8.45;4.40;;;;;;;11.66;100.00;92488.81;2082859;28;20017;-81
2023/07/28 01:57:51;;;;;;;8.27;5.05;;;;;;;11.62;100.00;92493.53;2073110;28;20030;-82
2023/07/28 01:58:52;;;;;;;6.28;4.53;;;;;;;11.61;100.00;92500.09;2089990;28;20071;-82
2023/07/28 01:59:56;;;;;;;6.97;4.68;;;;;;;11.70;100.00;92499.41;2082261;28;20620;-81
2023/07/28 02:00:57;;;;;;;9.75;4.47;;;;;;;11.79;100.00;92502.13;2073709;28;20033;-82
2023/07/28 02:01:58;;;;;;;9.52;4.65;;;;;;;11.79;100.00;92504.81;2084295;28;20052;-83
2023/07/28 02:03:01;;;;;;;6.63;4.05;;;;;;;11.79;100.00;92502.13;2089036;28;20078;-81
2023/07/28 02:04:02;;;;;;;13.50;4.60;;;;;;;11.71;100.00;92509.66;2072951;28;20113;-83
2023/07/28 02:05:03;;;;;;;7.63;4.43;;;;;;;11.77;100.00;92507.19;2072019;28;20080;-80
2023/07/28 02:06:07;;;;;;;6.38;4.25;;;;;;;11.88;100.00;92506.81;2072272;28;20034;-82
2023/07/28 02:07:08;;;;;;;7.47;4.97;;;;;;;11.94;100.00;92513.84;2081365;28;20034;-82
2023/07/28 02:08:09;;;;;;;8.07;4.57;;;;;;;11.92;100.00;92507.44;2080398;28;20049;-81
2023/07/28 02:09:10;;;;;;;6.70;4.65;;;;;;;12.02;100.00;92508.97;2081006;28;20036;-81
2023/07/28 02:10:11;;;;;;;6.90;4.13;;;;;;;12.07;100.00;92513.75;2065442;28;20053;-81
2023/07/28 02:11:12;;;;;;;7.22;4.80;;;;;;;12.08;100.00;92510.66;2081200;28;20520;-81
2023/07/28 02:12:13;;;;;;;10.88;5.20;;;;;;;12.04;100.00;92512.72;2074543;28;20495;-81
2023/07/28 02:13:14;;;;;;;7.18;4.40;;;;;;;12.01;100.00;92510.91;2077580;28;20056;-83
2023/07/28 02:14:16;;;;;;;9.20;4.20;;;;;;;12.08;100.00;92515.25;2089139;28;20474;-82
2023/07/28 02:15:17;;;;;;;8.13;4.18;;;;;;;12.20;100.00;92503.69;2080294;28;20112;-81
2023/07/28 02:16:18;;;;;;;12.88;4.93;;;;;;;12.23;100.00;92510.09;2073268;28;20033;-82
2023/07/28 02:17:29;;;;;;;6.15;4.28;;;;;;;12.12;100.00;92515.13;2076988;28;20029;-82
2023/07/28 02:18:30;;;;;;;7.65;4.28;;;;;;;12.12;100.00;92510.53;2075679;28;20044;-83
2023/07/28 02:19:31;;;;;;;9.57;4.43;;;;;;;12.22;100.00;92516.66;2076556;28;20057;-81
2023/07/28 02:22:15;;;;;;;;;;;;;;;12.23;100.00;92520.81;2143033;27;20169;-79
2023/07/28 02:23:16;;;;;;;9.93;4.22;;;;;;;12.27;100.00;92532.16;2139492;27;19915;-79
2023/07/28 02:24:17;;;;;;;7.88;4.45;;;;;;;12.35;100.00;92530.72;2128922;27;20064;-79
2023/07/28 02:25:18;;;;;;;9.75;4.60;;;;;;;12.38;100.00;92523.69;2117962;27;20112;-79
2023/07/28 02:26:19;;;;;;;8.70;4.78;;;;;;;12.40;100.00;92524.03;2121630;28;20046;-79
2023/07/28 02:27:20;;;;;;;6.82;4.15;;;;;;;12.35;100.00;92520.72;2130101;27;20034;-79
2023/07/28 02:28:21;;;;;;;7.35;4.43;;;;;;;12.32;100.00;92524.28;2133840;27;20445;-79
2023/07/28 02:29:22;;;;;;;6.47;3.90;;;;;;;12.42;100.00;92527.00;2131369;27;20030;-79
2023/07/28 02:30:23;;;;;;;10.02;4.43;;;;;;;12.44;100.00;92525.38;2121264;28;20047;-79
2023/07/28 02:31:24;;;;;;;8.23;4.25;;;;;;;12.46;100.00;92524.94;2112787;27;20035;-79
2023/07/28 02:32:26;;;;;;;7.40;4.72;;;;;;;12.44;100.00;92522.69;2130165;27;20031;-79
2023/07/28 02:33:29;;;;;;;6.90;3.95;;;;;;;12.41;100.00;92522.81;2121539;27;20023;-79
2023/07/28 02:34:30;;;;;;;10.43;3.83;;;;;;;12.40;100.00;92516.72;2114685;28;20111;-79
2023/07/28 02:35:32;;;;;;;7.43;3.88;;;;;;;12.40;100.00;92519.41;2128428;27;20674;-79
2023/07/28 02:36:34;;;;;;;4.47;3.60;;;;;;;12.33;100.00;92525.03;2129858;27;20023;-79
2023/07/28 02:37:35;;;;;;;5.25;3.30;;;;;;;12.46;100.00;92514.94;2130086;27;20030;-79
2023/07/28 02:38:37;;;;;;;5.05;3.70;;;;;;;12.40;100.00;92513.31;2117616;28;20099;-79
2023/07/28 02:39:38;;;;;;;4.35;3.28;;;;;;;12.59;100.00;92515.59;2116245;27;20486;-79
2023/07/28 02:40:39;;;;;;;5.25;3.00;;;;;;;12.60;100.00;92521.72;2121334;27;20016;-79
2023/07/28 02:41:40;;;;;;;4.40;3.45;;;;;;;12.59;100.00;92515.59;2114148;28;20050;-79
2023/07/28 02:42:41;;;;;;;4.28;3.00;;;;;;;12.43;100.00;92523.88;2111483;28;20118;-79
2023/07/28 02:43:41;;;;;;;5.00;2.97;;;;;;;12.43;100.00;92528.50;2104525;28;20047;-79
2023/07/28 02:44:43;;;;;;;3.80;3.42;;;;;;;12.48;100.00;92520.63;2104246;28;20120;-79
2023/07/28 02:45:48;;;;;;;3.63;3.10;;;;;;;12.42;100.00;92527.75;2114923;27;20460;-79
2023/07/28 02:46:49;;;;;;;4.65;3.05;;;;;;;12.51;100.00;92524.34;2130149;27;20416;-79
2023/07/28 02:48:29;;;;;;;3.50;2.72;;;;;;;12.56;100.00;92526.47;2119729;27;20266;-79
2023/07/28 02:49:30;;;;;;;2.97;2.67;;;;;;;12.57;100.00;92534.06;2125777;27;20420;-80
2023/07/28 02:50:31;;;;;;;4.18;2.92;;;;;;;12.56;100.00;92534.50;2122402;28;20085;-79
2023/07/28 02:51:34;;;;;;;3.20;2.90;;;;;;;12.62;100.00;92534.66;2129902;27;20044;-79
2023/07/28 02:52:35;;;;;;;8.75;2.70;;;;;;;12.64;100.00;92534.97;2113621;28;20484;-79
2023/07/28 02:53:36;;;;;;;3.75;2.90;;;;;;;12.72;100.00;92541.53;2096995;28;20033;-79
2023/07/28 02:54:37;;;;;;;6.53;2.90;;;;;;;12.72;100.00;92538.84;2106352;28;20020;-79
2023/07/28 02:55:42;;;;;;;5.97;2.88;;;;;;;12.71;100.00;92548.09;2117462;27;20152;-79
2023/07/28 02:56:44;;;;;;;2.88;2.45;;;;;;;12.72;100.00;92538.84;2112382;27;20035;-79
2023/07/28 02:57:45;;;;;;;3.08;2.65;;;;;;;12.72;100.00;92547.66;2113039;28;20102;-79
2023/07/28 02:58:46;;;;;;;2.70;2.50;;;;;;;12.74;100.00;92549.91;2115568;27;20046;-79
2023/07/28 02:59:47;;;;;;;2.88;2.47;;;;;;;12.80;100.00;92545.44;2104494;28;20388;-79
2023/07/28 03:00:48;;;;;;;3.03;2.63;;;;;;;12.78;100.00;92543.22;2104371;28;20097;-79
2023/07/28 03:01:51;;;;;;;3.63;2.67;;;;;;;12.80;100.00;92538.13;2100877;28;20023;-79
2023/07/28 03:02:52;;;;;;;2.80;2.45;;;;;;;12.78;100.00;92545.91;2102039;28;20025;-79
2023/07/28 03:03:53;;;;;;;4.45;2.83;;;;;;;12.79;100.00;92543.94;2099219;28;20384;-79
2023/07/28 03:04:54;;;;;;;3.30;2.33;;;;;;;12.76;100.00;92547.50;2118975;27;20030;-79
2023/07/28 03:05:55;;;;;;;5.10;2.55;;;;;;;12.79;100.00;92543.94;2121457;28;20027;-79
2023/07/28 03:06:56;;;;;;;5.28;2.78;;;;;;;12.74;100.00;92544.53;2112669;28;20027;-79
2023/07/28 03:07:57;;;;;;;2.33;2.13;;;;;;;12.79;100.00;92543.94;2103571;28;20107;-79
2023/07/28 03:08:58;;;;;;;3.60;2.30;;;;;;;12.78;100.00;92548.56;2104799;28;20031;-79
2023/07/28 03:09:59;;;;;;;2.53;2.30;;;;;;;12.65;100.00;92542.56;2116652;27;20050;-79
2023/07/28 03:11:03;;;;;;;5.13;2.30;;;;;;;12.60;100.00;92545.84;2129249;27;20033;-79
2023/07/28 03:12:05;;;;;;;3.67;2.35;;;;;;;12.51;100.00;92543.88;2128456;27;20026;-79
2023/07/28 03:13:07;;;;;;;5.97;2.42;;;;;;;12.55;100.00;92543.72;2109852;28;20047;-79
2023/07/28 03:14:08;;;;;;;2.17;1.98;;;;;;;12.45;100.00;92542.19;2112669;27;20027;-79
2023/07/28 03:15:16;;;;;;;2.58;2.10;;;;;;;12.48;100.00;92552.78;2113165;27;20352;-79
2023/07/28 03:16:17;;;;;;;4.45;2.20;;;;;;;12.40;100.00;92559.59;2113879;28;20784;-79
2023/07/28 03:17:18;;;;;;;2.40;2.20;;;;;;;12.30;100.00;92550.03;2121139;28;20011;-79
2023/07/28 03:18:20;;;;;;;4.13;2.20;;;;;;;12.40;100.00;92551.56;2112840;28;20325;-79
2023/07/28 03:19:21;;;;;;;3.40;2.60;;;;;;;12.33;100.00;92557.19;2104093;28;20028;-79
2023/07/28 03:20:22;;;;;;;2.67;2.20;;;;;;;12.37;100.00;92544.41;2120034;27;20022;-79
2023/07/28 03:21:22;;;;;;;3.92;2.13;;;;;;;12.48;100.00;92552.06;2112523;28;20071;-79
2023/07/28 03:22:23;;;;;;;3.78;2.28;;;;;;;12.51;100.00;92551.91;2116975;27;20092;-79
2023/07/28 03:23:24;;;;;;;2.88;2.30;;;;;;;12.50;100.00;92547.72;2121810;27;20031;-79
2023/07/28 03:24:25;;;;;;;3.47;2.22;;;;;;;12.42;100.00;92546.50;2112380;28;20019;-79
2023/07/28 03:25:26;;;;;;;2.50;2.30;;;;;;;12.51;100.00;92554.59;2104455;28;20055;-79
2023/07/28 03:26:27;;;;;;;3.45;2.20;;;;;;;12.49;100.00;92550.84;2112680;28;20129;-79
2023/07/28 03:27:29;;;;;;;2.50;1.95;;;;;;;12.50;100.00;92547.72;2107322;28;20526;-79
2023/07/28 03:28:30;;;;;;;2.60;2.22;;;;;;;12.43;100.00;92548.00;2109874;28;20031;-79
2023/07/28 03:29:30;;;;;;;2.47;2.28;;;;;;;12.42;100.00;92554.53;2118712;27;20019;-79
2023/07/28 03:30:32;;;;;;;2.75;2.20;;;;;;;12.48;100.00;92550.13;2113358;28;20077;-79
2023/07/28 03:31:35;;;;;;;3.42;2.42;;;;;;;12.56;100.00;92550.59;2121384;27;20072;-79
2023/07/28 03:32:37;;;;;;;4.57;1.90;;;;;;;12.57;100.00;92550.16;2126094;27;20015;-79
2023/07/28 03:33:38;;;;;;;3.20;2.67;;;;;;;12.59;100.00;92550.44;2111118;28;20019;-79
2023/07/28 03:34:39;;;;;;;3.53;2.22;;;;;;;12.53;100.00;92551.47;2115886;28;20404;-79
2023/07/28 03:35:52;;;;;;;4.00;2.00;;;;;;;12.54;100.00;92548.34;2116118;28;20476;-79
2023/07/28 03:36:54;;;;;;;4.00;2.17;;;;;;;12.48;100.00;92547.44;2115034;28;20024;-79
2023/07/28 03:38:02;;;;;;;4.07;2.30;;;;;;;12.51;100.00;92545.78;2106985;28;20019;-79
2023/07/28 03:39:03;;;;;;;2.55;2.00;;;;;;;12.40;100.00;92548.16;2095471;28;20029;-79
2023/07/28 03:40:05;;;;;;;2.95;2.45;;;;;;;12.45;100.00;92544.88;2103876;28;20054;-79
2023/07/28 03:41:07;;;;;;;4.20;2.38;;;;;;;12.50;100.00;92541.63;2115740;28;20016;-79
2023/07/28 03:42:08;;;;;;;2.40;1.90;;;;;;;12.50;100.00;92537.00;2116118;28;20020;-79
2023/07/28 03:43:09;;;;;;;3.97;2.03;;;;;;;12.47;100.00;92537.91;2102728;28;20445;-79
2023/07/28 03:44:10;;;;;;;2.15;1.95;;;;;;;12.45;100.00;92537.59;2098669;28;20025;-79
2023/07/28 03:45:11;;;;;;;4.65;2.30;;;;;;;12.32;100.00;92535.00;2120811;27;20043;-79
2023/07/28 03:46:12;;;;;;;2.85;1.90;;;;;;;12.30;100.00;92531.28;2113670;28;20149;-79
2023/07/28 03:47:12;;;;;;;3.92;2.15;;;;;;;12.23;100.00;92534.22;2106986;28;20024;-79
2023/07/28 03:48:13;;;;;;;3.05;2.42;;;;;;;12.31;100.00;92527.41;2106386;28;20059;-79
2023/07/28 03:49:14;;;;;;;4.72;2.33;;;;;;;12.28;100.00;92528.28;2112948;28;20443;-79
2023/07/28 03:50:15;;;;;;;5.03;2.40;;;;;;;12.24;100.00;92522.31;2115313;28;20106;-79
2023/07/28 03:51:16;;;;;;;3.72;2.05;;;;;;;12.16;100.00;92526.44;2115260;28;20023;-79
2023/07/28 03:52:17;;;;;;;3.17;2.05;;;;;;;12.18;100.00;92522.16;2115282;28;20020;-79
2023/07/28 03:53:18;;;;;;;3.47;2.20;;;;;;;12.16;100.00;92527.22;2106705;28;20024;-79
2023/07/28 03:54:19;;;;;;;2.33;2.00;;;;;;;12.01;100.00;92532.31;2114924;28;20055;-79
2023/07/28 03:55:20;;;;;;;2.25;1.80;;;;;;;12.02;100.00;92525.78;2115082;28;20027;-79
2023/07/28 03:56:21;;;;;;;4.13;2.35;;;;;;;12.03;100.00;92524.63;2115135;28;20055;-79
2023/07/28 03:57:22;;;;;;;4.38;2.50;;;;;;;12.04;100.00;92536.06;2119807;27;20019;-79
2023/07/28 03:58:25;;;;;;;2.63;2.13;;;;;;;11.98;100.00;92530.50;2115389;28;20047;-79
2023/07/28 03:59:26;;;;;;;3.38;2.08;;;;;;;11.96;100.00;92530.22;2090980;28;20052;-79
2023/07/28 04:00:27;;;;;;;2.33;2.08;;;;;;;11.98;100.00;92521.75;2113021;27;20023;-79
2023/07/28 04:01:28;;;;;;;2.67;1.80;;;;;;;12.01;100.00;92531.59;2123889;27;20065;-79
2023/07/28 04:02:29;;;;;;;5.50;2.60;;;;;;;11.97;100.00;92531.72;2102568;28;20028;-79
2023/07/28 04:03:30;;;;;;;3.40;2.13;;;;;;;11.96;100.00;92519.50;2108190;27;20552;-79
2023/07/28 04:04:31;;;;;;;6.53;2.50;;;;;;;12.03;100.00;92529.22;2123626;27;20730;-79
2023/07/28 04:05:32;;;;;;;3.42;2.47;;;;;;;11.96;100.00;92524.13;2103229;28;20167;-79
2023/07/28 04:06:44;;;;;;;2.72;2.05;;;;;;;11.90;100.00;92531.25;2106852;28;20024;-79
2023/07/28 04:08:10;;;;;;;3.28;2.20;;;;;;;11.88;100.00;92526.31;2114465;28;20027;-79
2023/07/28 04:09:13;;;;;;;2.20;2.00;;;;;;;11.88;100.00;92525.56;2106294;28;20102;-79
2023/07/28 04:10:13;;;;;;;3.97;2.50;;;;;;;11.90;100.00;92526.63;2108209;28;20027;-79
2023/07/28 04:11:14;;;;;;;2.45;1.90;;;;;;;11.91;100.00;92525.44;2098323;28;20450;-79
2023/07/28 04:12:15;;;;;;;2.97;2.20;;;;;;;11.84;100.00;92526.44;2110415;28;20016;-78
2023/07/28 04:13:16;;;;;;;3.15;2.22;;;;;;;11.97;100.00;92529.03;2113541;28;20020;-79
2023/07/28 04:14:17;;;;;;;4.10;2.40;;;;;;;11.96;100.00;92522.19;2106462;28;20024;-79
2023/07/28 04:15:18;;;;;;;4.40;2.40;;;;;;;11.94;100.00;92521.88;2089518;28;20032;-79
2023/07/28 04:16:19;;;;;;;2.88;2.25;;;;;;;11.96;100.00;92524.13;2103571;28;20412;-79
2023/07/28 04:17:20;;;;;;;2.70;2.35;;;;;;;11.81;100.00;92529.22;2115341;28;20507;-79
2023/07/28 04:18:21;;;;;;;5.13;2.15;;;;;;;11.87;100.00;92527.50;2106214;28;20024;-78
2023/07/28 04:19:22;;;;;;;3.08;2.30;;;;;;;11.84;100.00;92531.03;2113833;28;20055;-79
2023/07/28 04:20:23;;;;;;;2.92;2.17;;;;;;;11.85;100.00;92527.16;2113046;28;20016;-79
2023/07/28 04:21:24;;;;;;;3.92;2.38;;;;;;;11.83;100.00;92532.22;2106142;28;20065;-79
2023/07/28 04:22:25;;;;;;;2.28;2.05;;;;;;;11.83;100.00;92527.63;2098213;28;20721;-79
2023/07/28 04:23:26;;;;;;;3.92;2.20;;;;;;;11.78;100.00;92532.78;2090533;28;20017;-79
2023/07/28 04:24:27;;;;;;;4.10;2.30;;;;;;;11.76;100.00;92525.16;2100742;28;20061;-79
2023/07/28 04:25:28;;;;;;;3.45;2.03;;;;;;;11.82;100.00;92523.44;2114886;28;20771;-80
2023/07/28 04:26:28;;;;;;;5.65;2.40;;;;;;;11.81;100.00;92521.94;2111363;28;20045;-79
2023/07/28 04:27:29;;;;;;;2.97;2.33;;;;;;;11.83;100.00;92516.91;2098508;28;20093;-79
2023/07/28 04:28:30;;;;;;;2.88;2.15;;;;;;;11.83;100.00;92522.25;2096504;28;20016;-79
2023/07/28 04:29:31;;;;;;;3.17;2.00;;;;;;;11.89;100.00;92516.34;2090689;28;20032;-79
2023/07/28 04:30:37;;;;;;;4.38;2.20;;;;;;;11.96;100.00;92516.84;2118813;27;20079;-79
2023/07/28 04:31:38;;;;;;;4.35;2.20;;;;;;;12.01;100.00;92526.97;2106747;28;20043;-80
2023/07/28 04:32:39;;;;;;;3.95;2.28;;;;;;;12.07;100.00;92524.47;2092585;28;20029;-79
2023/07/28 04:33:43;;;;;;;2.55;2.15;;;;;;;12.06;100.00;92523.72;2107286;28;20019;-79
2023/07/28 04:34:44;;;;;;;3.10;2.30;;;;;;;12.05;100.00;92522.22;2106617;28;20024;-79
2023/07/28 04:35:45;;;;;;;4.45;2.50;;;;;;;12.13;100.00;92530.75;2102560;28;20035;-79
2023/07/28 04:36:46;;;;;;;3.95;2.10;;;;;;;12.14;100.00;92520.78;2113535;28;20035;-79
2023/07/28 04:37:47;;;;;;;3.97;2.42;;;;;;;12.18;100.00;92522.16;2106450;28;20461;-79
2023/07/28 04:38:47;;;;;;;3.63;2.22;;;;;;;12.17;100.00;92526.00;2114715;27;20049;-79
2023/07/28 04:39:48;;;;;;;3.08;2.22;;;;;;;12.32;100.00;92523.53;2111349;27;20077;-79
2023/07/28 04:40:50;;;;;;;3.60;2.00;;;;;;;12.30;100.00;92515.94;2109501;28;20042;-79
2023/07/28 04:41:50;;;;;;;4.50;2.28;;;;;;;12.37;100.00;92519.53;2114751;28;20019;-80
2023/07/28 04:42:53;;;;;;;2.90;2.20;;;;;;;12.35;100.00;92534.13;2114637;28;20069;-80
2023/07/28 04:43:54;;;;;;;5.07;2.58;;;;;;;12.39;100.00;92530.56;2114745;28;20032;-79
2023/07/28 04:44:55;;;;;;;2.53;2.20;;;;;;;12.38;100.00;92529.84;2097458;28;20058;-80
2023/07/28 04:45:56;;;;;;;3.25;2.38;;;;;;;12.38;100.00;92526.38;2105854;28;20100;-79
2023/07/28 04:46:57;;;;;;;3.13;2.70;;;;;;;12.43;100.00;92523.16;2114832;28;20027;-79
2023/07/28 04:47:58;;;;;;;2.60;2.00;;;;;;;12.46;100.00;92533.72;2110190;28;20038;-80
2023/07/28 04:48:59;;;;;;;3.50;2.03;;;;;;;12.52;100.00;92523.91;2114483;28;20019;-80
2023/07/28 04:50:00;;;;;;;2.92;2.30;;;;;;;12.53;100.00;92530.03;2113033;27;20023;-79
2023/07/28 04:51:01;;;;;;;2.25;2.03;;;;;;;12.59;100.00;92526.31;2115545;28;20062;-79